createdAt,value
2018-07-09T00:00:59.432Z,2.10
2018-07-09T00:03:28.036Z,2.30
2018-07-09T00:05:56.729Z,2.20
2018-07-09T00:08:25.395Z,2.40
2018-07-09T00:11:02.782Z,2.13
2018-07-09T00:13:31.961Z,1.90
2018-07-09T00:16:00.774Z,2.10
2018-07-09T00:18:29.563Z,2.30
2018-07-09T00:20:58.335Z,2.00
2018-07-09T00:23:27.014Z,2.63
2018-07-09T00:25:56.505Z,2.30
2018-07-09T00:28:25.524Z,2.30
2018-07-09T00:30:54.116Z,2.60
2018-07-09T00:33:23.044Z,1.93
2018-07-09T00:35:51.619Z,2.53
2018-07-09T00:38:20.617Z,2.17
2018-07-09T00:40:49.341Z,2.80
2018-07-09T00:43:18.080Z,2.40
2018-07-09T00:45:46.656Z,2.33
2018-07-09T00:48:15.380Z,2.30
2018-07-09T00:50:44.012Z,2.10
2018-07-09T00:53:12.648Z,2.20
2018-07-09T00:55:41.244Z,2.23
2018-07-09T00:58:09.802Z,2.20
2018-07-09T01:00:38.408Z,2.47
2018-07-09T01:03:07.004Z,2.40
2018-07-09T01:05:35.621Z,2.40
2018-07-09T01:08:04.629Z,2.43
2018-07-09T01:10:33.421Z,2.33
2018-07-09T01:13:02.143Z,2.73
2018-07-09T01:15:30.698Z,2.13
2018-07-09T01:17:59.272Z,2.40
2018-07-09T01:20:27.951Z,2.67
2018-07-09T01:22:56.553Z,2.20
2018-07-09T01:25:25.475Z,2.53
2018-07-09T01:27:54.125Z,2.80
2018-07-09T01:30:22.782Z,2.40
2018-07-09T01:32:51.451Z,2.30
2018-07-09T01:35:20.033Z,2.53
2018-07-09T01:37:48.673Z,2.80
2018-07-09T01:40:17.280Z,2.50
2018-07-09T01:42:46.044Z,2.20
2018-07-09T01:45:14.668Z,2.53
2018-07-09T01:47:43.236Z,2.60
2018-07-09T01:50:11.821Z,2.50
2018-07-09T01:52:40.674Z,2.47
2018-07-09T01:55:09.428Z,2.33
2018-07-09T01:57:38.030Z,2.40
2018-07-09T02:00:06.933Z,2.50
2018-07-09T02:02:35.572Z,2.30
2018-07-09T02:05:04.332Z,2.20
2018-07-09T02:07:33.026Z,2.70
2018-07-09T02:10:01.704Z,2.83
2018-07-09T02:12:30.377Z,2.70
2018-07-09T02:14:59.049Z,2.43
2018-07-09T02:17:27.675Z,2.83
2018-07-09T02:19:56.318Z,2.77
2018-07-09T02:22:25.070Z,2.53
2018-07-09T02:24:53.733Z,2.73
2018-07-09T02:27:22.421Z,2.80
2018-07-09T02:29:51.113Z,2.20
2018-07-09T02:32:19.737Z,2.43
2018-07-09T02:34:48.445Z,2.67
2018-07-09T02:37:17.071Z,2.50
2018-07-09T02:39:45.815Z,2.60
2018-07-09T02:42:14.514Z,2.40
2018-07-09T02:44:43.136Z,2.57
2018-07-09T02:47:11.717Z,2.87
2018-07-09T02:49:40.328Z,2.40
2018-07-09T02:52:08.898Z,2.47
2018-07-09T02:54:37.702Z,2.47
2018-07-09T02:57:06.479Z,2.50
2018-07-09T02:59:35.085Z,2.43
2018-07-09T03:02:04.409Z,2.60
2018-07-09T03:04:33.041Z,2.60
2018-07-09T03:07:01.701Z,2.60
2018-07-09T03:09:30.448Z,2.33
2018-07-09T03:11:59.201Z,2.40
2018-07-09T03:14:27.769Z,2.40
2018-07-09T03:16:56.441Z,2.50
2018-07-09T03:19:25.063Z,2.60
2018-07-09T03:21:53.822Z,2.60
2018-07-09T03:24:22.510Z,2.67
2018-07-09T03:26:51.166Z,2.60
2018-07-09T03:29:19.775Z,2.63
2018-07-09T03:31:48.354Z,2.70
2018-07-09T03:34:17.255Z,2.80
2018-07-09T03:36:45.873Z,2.70
2018-07-09T03:39:14.650Z,2.73
2018-07-09T03:41:43.269Z,2.57
2018-07-09T03:44:12.000Z,2.23
2018-07-09T03:46:40.625Z,2.50
2018-07-09T03:49:09.260Z,2.47
2018-07-09T03:51:37.948Z,2.30
2018-07-09T03:54:06.962Z,2.80
2018-07-09T03:56:35.685Z,2.70
2018-07-09T03:59:04.297Z,2.83
2018-07-09T04:01:32.954Z,2.70
2018-07-09T04:04:01.618Z,2.40
2018-07-09T04:06:30.281Z,2.33
2018-07-09T04:08:58.917Z,2.63
2018-07-09T04:11:27.602Z,2.37
2018-07-09T04:13:56.264Z,2.67
2018-07-09T04:16:24.956Z,2.77
2018-07-09T04:18:53.699Z,2.30
2018-07-09T04:21:22.321Z,2.20
2018-07-09T04:23:51.616Z,2.60
2018-07-09T04:26:20.517Z,2.13
2018-07-09T04:28:49.391Z,2.23
2018-07-09T04:31:18.031Z,2.60
2018-07-09T04:33:46.714Z,2.57
2018-07-09T04:36:15.437Z,2.60
2018-07-09T04:38:44.051Z,2.40
2018-07-09T04:41:12.665Z,2.13
2018-07-09T04:43:41.313Z,2.47
2018-07-09T04:46:09.882Z,2.10
2018-07-09T04:48:38.628Z,2.47
2018-07-09T04:51:07.310Z,2.50
2018-07-09T04:53:36.144Z,2.40
2018-07-09T04:56:05.789Z,2.20
2018-07-09T04:58:34.403Z,2.10
2018-07-09T05:01:03.145Z,2.40
2018-07-09T05:03:31.838Z,2.20
2018-07-09T05:06:00.578Z,2.40
2018-07-09T05:08:29.276Z,2.20
2018-07-09T05:10:57.956Z,2.10
2018-07-09T05:13:26.685Z,2.40
2018-07-09T05:15:55.523Z,2.00
2018-07-09T05:18:24.218Z,2.20
2018-07-09T05:20:52.883Z,2.07
2018-07-09T05:23:21.466Z,2.20
2018-07-09T05:25:50.035Z,1.90
2018-07-09T05:28:18.656Z,2.37
2018-07-09T05:30:47.385Z,2.20
2018-07-09T05:33:16.006Z,2.10
2018-07-09T05:35:44.676Z,1.97
2018-07-09T05:38:13.389Z,1.97
2018-07-09T05:40:42.018Z,2.17
2018-07-09T05:43:10.720Z,2.00
2018-07-09T05:45:39.389Z,2.13
2018-07-09T05:48:08.484Z,2.50
2018-07-09T05:50:37.206Z,1.93
2018-07-09T05:53:05.862Z,2.30
2018-07-09T05:55:34.515Z,1.87
2018-07-09T05:58:03.200Z,2.03
2018-07-09T06:00:31.871Z,2.30
2018-07-09T06:03:00.559Z,1.93
2018-07-09T06:05:29.189Z,2.00
2018-07-09T06:07:57.764Z,1.93
2018-07-09T06:10:26.448Z,2.07
2018-07-09T06:12:55.236Z,2.20
2018-07-09T06:15:23.913Z,2.00
2018-07-09T06:17:52.695Z,1.93
2018-07-09T06:20:21.605Z,1.80
2018-07-09T06:22:50.475Z,1.80
2018-07-09T06:25:19.225Z,1.80
2018-07-09T06:27:47.830Z,1.80
2018-07-09T06:30:16.553Z,1.43
2018-07-09T06:32:45.152Z,1.90
2018-07-09T06:35:13.825Z,2.30
2018-07-09T06:37:42.628Z,1.90
2018-07-09T06:40:11.289Z,2.20
2018-07-09T06:42:40.011Z,2.20
2018-07-09T06:45:08.668Z,2.00
2018-07-09T06:47:37.302Z,2.00
2018-07-09T06:50:06.226Z,2.20
2018-07-09T06:52:34.851Z,2.33
2018-07-09T06:55:03.542Z,2.20
2018-07-09T06:57:32.293Z,2.07
2018-07-09T07:00:00.955Z,1.70
2018-07-09T07:02:29.598Z,1.90
2018-07-09T07:04:58.530Z,1.97
2018-07-09T07:07:27.150Z,2.10
2018-07-09T07:09:55.848Z,2.20
2018-07-09T07:12:24.473Z,2.13
2018-07-09T07:14:53.091Z,2.00
2018-07-09T07:17:21.750Z,2.10
2018-07-09T07:19:50.508Z,1.93
2018-07-09T07:22:20.610Z,2.00
2018-07-09T07:24:49.230Z,1.80
2018-07-09T07:27:17.907Z,1.80
2018-07-09T07:29:46.718Z,1.63
2018-07-09T07:32:15.448Z,1.47
2018-07-09T07:34:44.611Z,1.50
2018-07-09T07:37:13.296Z,1.80
2018-07-09T07:39:41.961Z,1.93
2018-07-09T07:42:10.647Z,1.60
2018-07-09T07:44:39.468Z,2.73
2018-07-09T07:47:08.191Z,1.70
2018-07-09T07:49:36.909Z,2.03
2018-07-09T07:52:05.767Z,1.67
2018-07-09T07:54:34.443Z,1.80
2018-07-09T07:57:03.078Z,1.90
2018-07-09T07:59:31.704Z,1.77
2018-07-09T08:02:00.421Z,1.60
2018-07-09T08:04:29.044Z,1.67
2018-07-09T08:06:57.709Z,1.70
2018-07-09T08:09:26.428Z,1.87
2018-07-09T08:12:59.658Z,1.73
2018-07-09T08:14:23.653Z,1.80
2018-07-09T08:16:52.710Z,1.40
2018-07-09T08:19:21.295Z,1.37
2018-07-09T08:21:49.929Z,1.60
2018-07-09T08:24:18.750Z,1.40
2018-07-09T08:26:47.464Z,1.37
2018-07-09T08:29:16.100Z,1.40
2018-07-09T08:31:44.794Z,1.53
2018-07-09T08:34:13.590Z,1.60
2018-07-09T08:36:42.258Z,1.20
2018-07-09T08:39:10.883Z,1.20
2018-07-09T08:41:39.613Z,1.40
2018-07-09T08:44:08.468Z,1.37
2018-07-09T08:46:37.081Z,1.57
2018-07-09T08:49:05.925Z,1.07
2018-07-09T08:51:34.531Z,1.40
2018-07-09T08:54:03.220Z,1.40
2018-07-09T08:56:31.920Z,1.10
2018-07-09T08:59:00.564Z,1.33
2018-07-09T09:01:29.261Z,1.57
2018-07-09T09:03:57.984Z,1.20
2018-07-09T09:06:26.522Z,1.30
2018-07-09T09:08:55.271Z,1.23
2018-07-09T09:11:23.943Z,1.30
2018-07-09T09:13:52.797Z,1.20
2018-07-09T09:16:21.514Z,1.37
2018-07-09T09:18:50.374Z,1.30
2018-07-09T09:21:18.960Z,1.20
2018-07-09T09:23:47.731Z,1.30
2018-07-09T09:26:16.366Z,1.30
2018-07-09T09:28:45.056Z,1.60
2018-07-09T09:31:13.706Z,1.27
2018-07-09T09:33:42.492Z,1.50
2018-07-09T09:36:11.198Z,1.80
2018-07-09T09:38:39.983Z,1.33
2018-07-09T09:41:08.699Z,1.47
2018-07-09T09:43:37.538Z,1.47
2018-07-09T09:46:06.645Z,1.60
2018-07-09T09:48:35.534Z,1.30
2018-07-09T09:52:07.113Z,1.60
2018-07-09T09:54:35.756Z,1.63
2018-07-09T09:57:04.579Z,1.40
2018-07-09T09:59:33.200Z,1.50
2018-07-09T10:02:01.879Z,1.57
2018-07-09T10:04:30.760Z,1.60
2018-07-09T10:06:59.450Z,1.50
2018-07-09T10:09:28.110Z,1.63
2018-07-09T10:11:56.962Z,1.47
2018-07-09T10:14:26.014Z,1.53
2018-07-09T10:16:54.699Z,1.37
2018-07-09T10:19:23.272Z,1.30
2018-07-09T10:21:51.944Z,1.67
2018-07-09T10:24:20.830Z,1.73
2018-07-09T10:26:49.449Z,1.43
2018-07-09T10:29:18.060Z,1.70
2018-07-09T10:31:46.697Z,2.80
2018-07-09T10:34:15.427Z,1.70
2018-07-09T10:36:44.054Z,1.30
2018-07-09T10:39:12.683Z,1.30
2018-07-09T10:41:41.364Z,1.37
2018-07-09T10:44:10.316Z,1.20
2018-07-09T10:46:38.956Z,1.40
2018-07-09T10:49:07.716Z,1.80
2018-07-09T10:51:36.372Z,2.20
2018-07-09T10:54:05.059Z,2.20
2018-07-09T10:56:33.620Z,1.50
2018-07-09T10:59:02.301Z,1.40
2018-07-09T11:01:31.305Z,1.70
2018-07-09T11:03:59.958Z,1.43
2018-07-09T11:06:28.555Z,1.70
2018-07-09T11:08:57.323Z,1.50
2018-07-09T11:11:25.903Z,1.60
2018-07-09T11:13:54.547Z,1.30
2018-07-09T11:16:23.464Z,1.83
2018-07-09T11:18:52.039Z,1.50
2018-07-09T11:21:20.700Z,1.40
2018-07-09T11:23:49.268Z,1.40
2018-07-09T11:26:18.068Z,1.40
2018-07-09T11:28:46.718Z,1.73
2018-07-09T11:31:15.328Z,1.83
2018-07-09T11:33:43.994Z,1.43
2018-07-09T11:36:12.670Z,1.73
2018-07-09T11:38:41.349Z,1.77
2018-07-09T11:41:10.081Z,1.80
2018-07-09T11:43:38.906Z,1.70
2018-07-09T11:46:07.577Z,1.60
2018-07-09T11:48:36.178Z,2.03
2018-07-09T11:51:04.867Z,1.73
2018-07-09T11:53:33.517Z,1.70
2018-07-09T11:56:02.216Z,1.70
2018-07-09T11:58:30.871Z,2.10
2018-07-09T12:00:59.521Z,1.80
2018-07-09T12:03:28.146Z,1.87
2018-07-09T12:05:57.054Z,1.63
2018-07-09T12:08:25.721Z,1.57
2018-07-09T12:10:54.414Z,1.63
2018-07-09T12:13:23.080Z,1.90
2018-07-09T12:15:51.771Z,1.80
2018-07-09T12:18:20.459Z,1.63
2018-07-09T12:20:49.119Z,1.50
2018-07-09T12:23:17.814Z,1.80
2018-07-09T12:25:46.507Z,2.00
2018-07-09T12:28:15.224Z,2.10
2018-07-09T12:30:43.876Z,1.60
2018-07-09T12:33:12.622Z,1.70
2018-07-09T12:35:41.314Z,1.77
2018-07-09T12:38:10.131Z,1.70
2018-07-09T12:40:38.887Z,1.67
2018-07-09T12:43:07.980Z,1.60
2018-07-09T12:45:36.654Z,1.83
2018-07-09T12:48:05.517Z,1.70
2018-07-09T12:50:34.156Z,1.80
2018-07-09T12:54:05.255Z,1.70
2018-07-09T12:56:34.561Z,1.90
2018-07-09T12:59:03.601Z,1.70
2018-07-09T13:01:32.291Z,1.60
2018-07-09T13:04:01.259Z,2.20
2018-07-09T13:06:29.864Z,1.97
2018-07-09T13:08:58.502Z,2.10
2018-07-09T13:11:27.228Z,1.97
2018-07-09T13:13:55.815Z,1.70
2018-07-09T13:16:24.462Z,1.70
2018-07-09T13:18:53.214Z,1.80
2018-07-09T13:21:21.801Z,2.00
2018-07-09T13:23:50.422Z,2.30
2018-07-09T13:26:19.096Z,1.60
2018-07-09T13:28:47.754Z,1.70
2018-07-09T13:31:16.613Z,1.65
2018-07-09T13:33:45.331Z,1.40
2018-07-09T13:36:14.010Z,1.55
2018-07-09T13:38:42.637Z,1.62
2018-07-09T13:41:11.335Z,1.80
2018-07-09T13:43:39.990Z,1.65
2018-07-09T13:46:08.639Z,1.87
2018-07-09T13:48:37.286Z,1.47
2018-07-09T13:51:06.109Z,1.40
2018-07-09T13:53:37.653Z,1.82
2018-07-09T13:56:06.526Z,1.35
2018-07-09T13:58:35.285Z,1.40
2018-07-09T14:01:03.935Z,1.30
2018-07-09T14:03:32.550Z,1.40
2018-07-09T14:06:01.224Z,1.60
2018-07-09T14:08:29.951Z,1.70
2018-07-09T14:10:58.547Z,1.67
2018-07-09T14:13:27.210Z,1.50
2018-07-09T14:15:55.918Z,1.47
2018-07-09T14:18:24.738Z,2.13
2018-07-09T14:20:53.409Z,1.30
2018-07-09T14:23:22.372Z,1.70
2018-07-09T14:25:51.041Z,1.63
2018-07-09T14:28:19.710Z,1.50
2018-07-09T14:30:48.430Z,1.57
2018-07-09T14:33:17.154Z,1.63
2018-07-09T14:35:45.856Z,1.37
2018-07-09T14:38:14.643Z,1.60
2018-07-09T14:40:43.377Z,1.60
2018-07-09T14:43:12.104Z,1.87
2018-07-09T14:45:40.743Z,2.10
2018-07-09T14:48:09.638Z,1.60
2018-07-09T14:50:38.300Z,1.40
2018-07-09T14:53:06.980Z,1.70
2018-07-09T14:55:35.599Z,1.80
2018-07-09T14:58:04.200Z,1.73
2018-07-09T15:00:32.831Z,1.50
2018-07-09T15:03:01.499Z,1.63
2018-07-09T15:05:30.102Z,1.60
2018-07-09T15:07:58.712Z,1.60
2018-07-09T15:10:27.500Z,1.50
2018-07-09T15:12:56.305Z,1.50
2018-07-09T15:15:24.912Z,1.30
2018-07-09T15:17:53.699Z,1.27
2018-07-09T15:20:22.518Z,1.50
2018-07-09T15:22:51.165Z,1.60
2018-07-09T15:25:19.876Z,1.33
2018-07-09T15:27:48.476Z,1.70
2018-07-09T15:30:17.151Z,1.30
2018-07-09T15:32:45.789Z,1.50
2018-07-09T15:35:14.525Z,1.40
2018-07-09T15:37:43.189Z,1.27
2018-07-09T15:40:12.062Z,1.40
2018-07-09T15:42:40.803Z,1.40
2018-07-09T15:45:09.434Z,1.23
2018-07-09T15:47:38.042Z,1.13
2018-07-09T15:50:06.883Z,1.30
2018-07-09T15:52:35.619Z,1.20
2018-07-09T15:55:04.384Z,1.10
2018-07-09T15:57:33.134Z,1.00
2018-07-09T16:00:01.777Z,1.17
2018-07-09T16:02:30.507Z,1.23
2018-07-09T16:04:59.130Z,1.00
2018-07-09T16:07:27.726Z,1.00
2018-07-09T16:09:56.297Z,0.80
2018-07-09T16:12:25.250Z,1.40
2018-07-09T16:14:53.807Z,1.40
2018-07-09T16:17:22.481Z,1.03
2018-07-09T16:19:51.044Z,1.20
2018-07-09T16:22:19.666Z,1.10
2018-07-09T16:24:48.404Z,1.20
2018-07-09T16:27:16.986Z,1.13
2018-07-09T16:29:45.731Z,1.60
2018-07-09T16:32:14.590Z,1.17
2018-07-09T16:34:43.258Z,1.30
2018-07-09T16:37:11.927Z,1.30
2018-07-09T16:39:40.600Z,1.23
2018-07-09T16:42:09.311Z,1.20
2018-07-09T16:44:37.958Z,1.17
2018-07-09T16:47:06.923Z,1.30
2018-07-09T16:49:35.552Z,1.40
2018-07-09T16:52:04.201Z,1.40
2018-07-09T16:54:32.784Z,1.33
2018-07-09T16:57:01.472Z,1.50
2018-07-09T16:59:30.082Z,1.40
2018-07-09T17:01:58.713Z,1.53
2018-07-09T17:04:27.409Z,1.50
2018-07-09T17:06:55.993Z,1.40
2018-07-09T17:09:24.686Z,1.30
2018-07-09T17:11:53.381Z,1.30
2018-07-09T17:14:22.203Z,1.40
2018-07-09T17:16:50.815Z,1.40
2018-07-09T17:19:19.457Z,1.30
2018-07-09T17:21:49.569Z,1.43
2018-07-09T17:24:18.301Z,1.37
2018-07-09T17:26:46.988Z,1.00
2018-07-09T17:29:15.698Z,1.23
2018-07-09T17:31:44.303Z,1.20
2018-07-09T17:34:13.400Z,1.00
2018-07-09T17:36:42.014Z,1.47
2018-07-09T17:39:10.940Z,1.37
2018-07-09T17:41:39.769Z,1.60
2018-07-09T17:44:08.535Z,1.27
2018-07-09T17:46:37.213Z,1.10
2018-07-09T17:49:05.916Z,1.13
2018-07-09T17:51:34.535Z,1.37
2018-07-09T17:54:03.148Z,1.17
2018-07-09T17:56:31.771Z,1.30
2018-07-09T17:59:00.414Z,1.30
2018-07-09T18:01:29.201Z,1.30
2018-07-09T18:03:57.860Z,1.20
2018-07-09T18:06:26.523Z,1.23
2018-07-09T18:08:55.227Z,1.50
2018-07-09T18:11:23.837Z,1.30
2018-07-09T18:13:52.452Z,1.47
2018-07-09T18:16:21.136Z,1.40
2018-07-09T18:18:49.786Z,1.70
2018-07-09T18:21:18.489Z,1.87
2018-07-09T18:23:47.125Z,1.70
2018-07-09T18:26:17.602Z,1.80
2018-07-09T18:28:46.808Z,1.77
2018-07-09T18:31:16.201Z,1.60
2018-07-09T18:33:45.842Z,1.87
2018-07-09T18:36:15.402Z,2.00
2018-07-09T18:38:44.712Z,1.87
2018-07-09T18:41:13.388Z,1.77
2018-07-09T18:43:42.112Z,1.83
2018-07-09T18:46:10.820Z,1.90
2018-07-09T18:48:39.581Z,1.80
2018-07-09T18:51:08.615Z,2.20
2018-07-09T18:53:37.728Z,1.87
2018-07-09T18:56:06.484Z,1.93
2018-07-09T18:58:35.423Z,1.90
2018-07-09T19:01:04.225Z,1.90
2018-07-09T19:03:32.871Z,2.10
2018-07-09T19:07:07.949Z,1.63
2018-07-09T19:09:37.896Z,1.90
2018-07-09T19:12:07.952Z,2.10
2018-07-09T19:14:40.658Z,2.00
2018-07-09T19:18:20.595Z,1.73
2018-07-09T19:21:27.455Z,1.83
2018-07-09T19:23:55.355Z,2.00
2018-07-09T19:26:22.812Z,1.80
2018-07-09T19:28:50.564Z,2.10
2018-07-09T19:31:18.388Z,1.83
2018-07-09T19:33:45.958Z,1.87
2018-07-09T19:36:13.721Z,1.70
2018-07-09T19:38:41.306Z,2.10
2018-07-09T19:41:09.261Z,2.20
2018-07-09T19:43:37.363Z,1.70
2018-07-09T19:46:04.776Z,2.20
2018-07-09T19:48:32.206Z,2.70
2018-07-09T19:50:59.553Z,2.50
2018-07-09T19:53:26.923Z,2.40
2018-07-09T19:55:54.300Z,2.43
2018-07-09T19:58:21.677Z,2.90
2018-07-09T20:00:49.117Z,2.40
2018-07-09T20:03:16.538Z,2.67
2018-07-09T20:05:43.986Z,2.30
2018-07-09T20:08:11.454Z,2.23
2018-07-09T20:10:44.030Z,2.20
2018-07-09T20:13:16.507Z,2.07
2018-07-09T20:15:49.072Z,2.50
2018-07-09T20:18:16.491Z,2.87
2018-07-09T20:20:44.001Z,2.37
2018-07-09T20:23:11.386Z,2.37
2018-07-09T20:25:38.861Z,2.17
2018-07-09T20:28:06.288Z,1.83
2018-07-09T20:30:33.720Z,2.00
2018-07-09T20:33:01.104Z,2.03
2018-07-09T20:35:28.445Z,1.70
2018-07-09T20:37:55.873Z,2.10
2018-07-09T20:40:23.221Z,2.23
2018-07-09T20:42:50.559Z,1.97
2018-07-09T20:45:18.233Z,1.93
2018-07-09T20:47:46.533Z,2.30
2018-07-09T20:50:14.019Z,2.00
2018-07-09T20:52:41.383Z,2.47
2018-07-09T20:55:08.890Z,2.37
2018-07-09T20:57:36.622Z,2.20
2018-07-09T21:00:04.005Z,2.33
2018-07-09T21:02:32.179Z,2.40
2018-07-09T21:04:59.547Z,2.40
2018-07-09T21:07:27.282Z,2.20
2018-07-09T21:09:54.711Z,2.13
2018-07-09T21:12:22.119Z,2.50
2018-07-09T21:14:49.502Z,2.20
2018-07-09T21:17:16.963Z,2.10
2018-07-09T21:19:44.421Z,2.30
2018-07-09T21:22:11.953Z,2.50
2018-07-09T21:24:39.452Z,2.10
2018-07-09T21:27:06.926Z,2.40
2018-07-09T21:29:34.413Z,2.37
2018-07-09T21:32:01.879Z,2.30
2018-07-09T21:34:29.287Z,2.37
2018-07-09T21:36:56.961Z,2.53
2018-07-09T21:39:24.467Z,2.47
2018-07-09T21:41:51.931Z,2.37
2018-07-09T21:44:19.355Z,2.20
2018-07-09T21:46:46.993Z,2.30
2018-07-09T21:49:14.564Z,2.67
2018-07-09T21:51:41.975Z,2.43
2018-07-09T21:54:09.363Z,2.40
2018-07-09T21:56:36.818Z,2.57
2018-07-09T21:59:04.350Z,2.77
2018-07-09T22:01:31.810Z,2.50
2018-07-09T22:03:59.165Z,2.30
2018-07-09T22:06:27.088Z,2.40
2018-07-09T22:08:54.604Z,2.30
2018-07-09T22:11:22.114Z,2.20
2018-07-09T22:13:49.616Z,2.40
2018-07-09T22:16:17.281Z,2.40
2018-07-09T22:18:44.945Z,2.50
2018-07-09T22:21:12.360Z,2.60
2018-07-09T22:23:39.836Z,2.27
2018-07-09T22:26:07.264Z,2.37
2018-07-09T22:28:34.700Z,2.30
2018-07-09T22:31:03.366Z,2.13
2018-07-09T22:33:32.307Z,2.53
2018-07-09T22:36:00.887Z,2.20
2018-07-09T22:38:29.531Z,2.40
2018-07-09T22:40:58.321Z,2.30
2018-07-09T22:43:38.165Z,2.77
2018-07-09T22:46:06.784Z,2.40
2018-07-09T22:48:35.483Z,2.40
2018-07-09T22:51:04.372Z,2.53
2018-07-09T22:53:32.993Z,2.60
2018-07-09T22:56:10.139Z,2.40
2018-07-09T22:58:39.986Z,2.60
2018-07-09T23:01:08.720Z,2.67
2018-07-09T23:03:37.424Z,2.70
2018-07-09T23:06:06.102Z,2.27
2018-07-09T23:08:34.823Z,2.33
2018-07-09T23:13:14.494Z,2.73
2018-07-09T23:15:54.413Z,2.50
2018-07-09T23:18:34.316Z,2.57
2018-07-09T23:23:08.918Z,2.53
2018-07-09T23:25:36.299Z,2.20
2018-07-09T23:28:03.702Z,2.50
2018-07-09T23:30:37.214Z,2.57
2018-07-09T23:33:04.610Z,2.13
2018-07-09T23:35:32.012Z,2.20
2018-07-09T23:37:59.426Z,2.17
2018-07-09T23:40:26.976Z,2.60
2018-07-09T23:42:54.367Z,2.70
2018-07-09T23:45:21.791Z,2.37
2018-07-09T23:47:49.228Z,2.30
2018-07-09T23:50:16.659Z,2.23
2018-07-09T23:52:44.109Z,2.60
2018-07-09T23:55:11.507Z,2.53
2018-07-09T23:59:53.187Z,2.10
